Time;durP1;ratioP1;P1;durP2;ratioP2;P2;SDS_P1;SDS_P2;PMS_P1;PMS_P2;Temp;Humidity;BMP_temperature;BMP_pressure;BME280_temperature;BME280_humidity;BME280_pressure;Samples;Min_cycle;Max_cycle;Signal;HPM_P1;HPM_P2
2023/07/30 00:00:10;;;;;;;;;;;;;;;23.07;50.20;94471.19;5194798;22;19923;-82
2023/07/30 00:02:11;;;;;;;;;;;;;;;23.08;50.49;94476.28;5194199;22;19929;-80
2023/07/30 00:04:13;;;;;;;;;;;;;;;23.13;50.05;94470.22;5219888;22;19914;-80
2023/07/30 00:06:15;;;;;;;;;;;;;;;23.16;50.18;94467.06;5220407;22;19960;-80
2023/07/30 00:08:16;;;;;;;;;;;;;;;23.20;49.76;94464.72;5220795;22;19993;-82
2023/07/30 00:10:18;;;;;;;;;;;;;;;23.21;49.94;94467.16;5169767;22;19949;-81
2023/07/30 00:12:20;;;;;;;;;;;;;;;23.23;49.55;94466.88;5219506;22;19965;-81
2023/07/30 00:14:21;;;;;;;;;;;;;;;23.20;49.65;94465.50;5221505;22;20012;-81
2023/07/30 00:16:25;;;;;;;;;;;;;;;23.17;50.06;94460.66;5193686;22;19926;-81
2023/07/30 00:18:26;;;;;;;;;;;;;;;23.16;49.60;94461.72;5217424;22;19926;-83
2023/07/30 00:20:28;;;;;;;;;;;;;;;23.13;49.68;94461.41;5221234;22;19918;-83
2023/07/30 00:22:30;;;;;;;;;;;;;;;23.11;49.71;94461.63;5172723;22;19915;-82
2023/07/30 00:24:32;;;;;;;;;;;;;;;23.09;50.02;94463.75;5221302;22;19937;-81
2023/07/30 00:26:33;;;;;;;;;;;;;;;23.05;50.27;94463.41;5221918;22;19914;-79
2023/07/30 00:28:35;;;;;;;;;;;;;;;23.03;49.97;94462.03;5194107;22;19922;-83
2023/07/30 00:30:37;;;;;;;;;;;;;;;22.99;50.18;94458.19;5216801;22;20301;-81
2023/07/30 00:32:43;;;;;;;;;;;;;;;22.97;50.47;94446.94;5188130;22;19939;-82
2023/07/30 00:34:46;;;;;;;;;;;;;;;22.96;50.67;94450.69;5188550;22;19931;-83
2023/07/30 00:36:50;;;;;;;;;;;;;;;22.93;50.73;94451.97;5217221;22;20299;-81
2023/07/30 00:38:52;;;;;;;;;;;;;;;22.89;50.56;94443.63;5217247;22;19926;-83
2023/07/30 00:40:53;;;;;;;;;;;;;;;22.87;50.71;94450.25;5191151;22;19915;-82
2023/07/30 00:42:55;;;;;;;;;;;;;;;22.84;50.83;94448.06;5190747;22;19923;-80
2023/07/30 00:44:57;;;;;;;;;;;;;;;22.81;51.08;94451.22;5165057;23;19915;-82
2023/07/30 00:46:58;;;;;;;;;;;;;;;22.76;51.25;94453.78;5217649;22;19918;-81
2023/07/30 00:49:03;;;;;;;;;;;;;;;22.63;51.64;94458.41;5191368;22;19949;-79
2023/07/30 00:51:04;;;;;;;;;;;;;;;22.59;51.57;94457.25;5219497;22;19942;-83
2023/07/30 00:53:08;;;;;;;;;;;;;;;22.54;51.56;94459.03;5192140;22;19915;-83
2023/07/30 00:55:09;;;;;;;;;;;;;;;22.41;51.55;94455.63;5216023;22;19942;-82
2023/07/30 00:57:11;;;;;;;;;;;;;;;22.35;51.40;94455.72;5215963;22;19950;-82
2023/07/30 00:59:13;;;;;;;;;;;;;;;22.28;51.36;94451.38;5217168;22;19915;-82
2023/07/30 01:01:15;;;;;;;;;;;;;;;22.25;51.32;94459.03;5216689;22;19936;-82
2023/07/30 01:03:17;;;;;;;;;;;;;;;22.25;51.17;94453.69;5189247;22;19915;-82
2023/07/30 01:05:19;;;;;;;;;;;;;;;22.26;51.41;94456.13;5188940;22;19962;-82
2023/07/30 01:07:21;;;;;;;;;;;;;;;22.23;51.44;94450.44;5189746;22;19927;-84
2023/07/30 01:09:23;;;;;;;;;;;;;;;22.19;51.41;94459.94;5219513;22;19921;-82
2023/07/30 01:11:28;;;;;;;;;;;;;;;22.13;51.04;94459.03;5192801;22;19994;-81
2023/07/30 01:13:32;;;;;;;;;;;;;;;22.01;51.53;94461.72;5189784;22;19957;-80
2023/07/30 01:15:33;;;;;;;;;;;;;;;21.90;51.71;94462.56;5189184;22;20240;-82
2023/07/30 01:17:35;;;;;;;;;;;;;;;21.87;52.09;94469.16;5189174;22;20506;-82
2023/07/30 01:19:37;;;;;;;;;;;;;;;21.94;52.08;94469.06;5217508;22;19915;-82
2023/07/30 01:21:40;;;;;;;;;;;;;;;21.99;52.28;94461.16;5218728;22;19915;-81
2023/07/30 01:23:41;;;;;;;;;;;;;;;22.08;52.45;94458.94;5218523;22;19965;-81
2023/07/30 01:25:43;;;;;;;;;;;;;;;22.15;52.83;94461.47;5217083;22;19927;-83
2023/07/30 01:27:47;;;;;;;;;;;;;;;22.18;52.87;94459.13;5215806;22;19922;-84
2023/07/30 01:29:54;;;;;;;;;;;;;;;22.23;52.97;94458.44;5216936;22;19918;-83
2023/07/30 01:31:56;;;;;;;;;;;;;;;22.04;51.25;94466.59;5189219;22;20280;-84
2023/07/30 01:33:58;;;;;;;;;;;;;;;21.54;52.48;94461.00;5190310;22;19915;-82
2023/07/30 01:35:59;;;;;;;;;;;;;;;21.16;53.46;94467.56;5166799;22;19950;-81
2023/07/30 01:38:02;;;;;;;;;;;;;;;20.95;54.10;94452.94;5219902;22;19934;-80
2023/07/30 01:40:04;;;;;;;;;;;;;;;20.53;55.17;94468.91;5191864;22;19963;-81
2023/07/30 01:42:06;;;;;;;;;;;;;;;20.26;55.89;94469.25;5165040;22;19983;-83
2023/07/30 01:44:07;;;;;;;;;;;;;;;20.38;56.02;94471.97;5218825;22;19989;-82
2023/07/30 01:46:09;;;;;;;;;;;;;;;20.30;56.49;94465.09;5215898;22;19929;-82
2023/07/30 01:48:11;;;;;;;;;;;;;;;20.44;56.09;94465.75;5217039;22;19922;-81
2023/07/30 01:50:14;;;;;;;;;;;;;;;20.57;55.87;94464.75;5189836;22;19942;-83
2023/07/30 01:52:15;;;;;;;;;;;;;;;20.75;55.34;94464.69;5217141;22;19976;-81
2023/07/30 01:54:17;;;;;;;;;;;;;;;20.97;54.70;94465.00;5216879;22;19993;-81
2023/07/30 01:56:21;;;;;;;;;;;;;;;21.17;54.11;94466.53;5215506;22;19919;-81
2023/07/30 01:58:23;;;;;;;;;;;;;;;21.31;53.38;94472.44;5189297;22;20310;-82
2023/07/30 02:00:24;;;;;;;;;;;;;;;21.41;53.22;94468.19;5216561;22;20007;-82
2023/07/30 02:02:26;;;;;;;;;;;;;;;21.54;53.01;94469.81;5216313;22;19961;-82
2023/07/30 02:04:28;;;;;;;;;;;;;;;21.62;52.86;94471.31;5188689;22;19915;-82
2023/07/30 02:06:29;;;;;;;;;;;;;;;21.66;52.89;94473.28;5216311;22;19922;-81
2023/07/30 02:08:31;;;;;;;;;;;;;;;21.73;52.54;94472.34;5217149;22;19961;-83
2023/07/30 02:10:33;;;;;;;;;;;;;;;21.76;52.52;94471.88;5217337;22;19961;-83
2023/07/30 02:12:35;;;;;;;;;;;;;;;21.79;52.60;94476.72;5191807;22;20308;-82
2023/07/30 02:14:37;;;;;;;;;;;;;;;21.78;52.53;94470.56;5221932;22;19919;-81
2023/07/30 02:16:38;;;;;;;;;;;;;;;21.73;52.73;94470.47;5212721;22;20284;-81
2023/07/30 02:18:40;;;;;;;;;;;;;;;21.76;52.70;94472.66;5216760;22;20327;-81
2023/07/30 02:20:43;;;;;;;;;;;;;;;21.73;53.06;94481.16;5217722;22;20089;-81
2023/07/30 02:22:44;;;;;;;;;;;;;;;21.72;53.24;94481.38;5218163;22;19919;-80
2023/07/30 02:24:46;;;;;;;;;;;;;;;21.70;53.17;94473.59;5224099;22;19966;-81
2023/07/30 02:26:48;;;;;;;;;;;;;;;21.71;53.14;94477.09;5224913;22;19940;-82
2023/07/30 02:28:50;;;;;;;;;;;;;;;21.70;53.19;94478.13;5219579;22;20056;-83
2023/07/30 02:30:52;;;;;;;;;;;;;;;21.67;53.24;94479.41;5214250;22;19922;-80
2023/07/30 02:32:54;;;;;;;;;;;;;;;21.64;53.22;94478.03;5215144;22;20499;-82
2023/07/30 02:34:57;;;;;;;;;;;;;;;21.61;53.40;94483.81;5214362;22;19950;-81
2023/07/30 02:36:59;;;;;;;;;;;;;;;21.59;53.30;94479.75;5215212;22;20359;-82
2023/07/30 02:39:00;;;;;;;;;;;;;;;21.58;53.51;94481.63;5188402;22;19954;-82
2023/07/30 02:41:03;;;;;;;;;;;;;;;21.60;53.53;94484.88;5214243;22;20004;-83
2023/07/30 02:43:04;;;;;;;;;;;;;;;21.62;53.22;94485.44;5214220;22;19919;-81
2023/07/30 02:45:06;;;;;;;;;;;;;;;21.62;53.53;94476.66;5214291;22;20798;-82
2023/07/30 02:47:08;;;;;;;;;;;;;;;21.61;53.03;94491.81;5214749;22;20322;-81
2023/07/30 02:49:10;;;;;;;;;;;;;;;21.59;53.16;94483.22;5214535;22;19919;-81
2023/07/30 02:51:11;;;;;;;;;;;;;;;21.57;53.36;94479.97;5161462;23;20017;-82
2023/07/30 02:53:13;;;;;;;;;;;;;;;21.53;53.04;94478.84;5216111;22;20118;-82
2023/07/30 02:55:16;;;;;;;;;;;;;;;21.52;53.03;94482.53;5219005;22;19981;-82
2023/07/30 02:57:17;;;;;;;;;;;;;;;21.54;52.99;94480.47;5215404;22;20354;-82
2023/07/30 02:59:19;;;;;;;;;;;;;;;21.53;53.03;94478.84;5215534;22;19958;-83
2023/07/30 03:01:20;;;;;;;;;;;;;;;21.54;53.05;94485.00;5212635;22;19961;-83
2023/07/30 03:03:22;;;;;;;;;;;;;;;21.54;52.85;94479.66;5213740;22;19925;-82
2023/07/30 03:05:24;;;;;;;;;;;;;;;21.56;52.85;94488.22;5215191;22;19997;-82
2023/07/30 03:07:26;;;;;;;;;;;;;;;21.56;52.76;94489.03;5216416;22;19922;-83
2023/07/30 03:09:27;;;;;;;;;;;;;;;21.58;52.52;94496.81;5188565;22;19922;-82
2023/07/30 03:11:29;;;;;;;;;;;;;;;21.57;52.48;94489.84;5215399;22;19926;-83
2023/07/30 03:13:31;;;;;;;;;;;;;;;21.56;52.47;94483.72;5187308;22;19949;-83
2023/07/30 03:15:33;;;;;;;;;;;;;;;21.55;52.89;94489.25;5187098;22;19926;-82
2023/07/30 03:17:34;;;;;;;;;;;;;;;21.52;52.93;94487.88;5185397;22;20073;-82
2023/07/30 03:19:36;;;;;;;;;;;;;;;21.52;52.92;94492.41;5214605;22;19918;-83
2023/07/30 03:21:38;;;;;;;;;;;;;;;21.52;52.93;94481.75;5217331;22;19930;-82
2023/07/30 03:23:44;;;;;;;;;;;;;;;21.53;53.04;94488.69;5189304;22;19941;-79
2023/07/30 03:25:46;;;;;;;;;;;;;;;21.55;53.17;94482.06;5188832;22;20331;-82
2023/07/30 03:27:48;;;;;;;;;;;;;;;21.56;53.08;94482.91;5188756;22;19919;-81
2023/07/30 03:29:50;;;;;;;;;;;;;;;21.59;52.82;94485.09;5188770;22;20256;-80
2023/07/30 03:31:51;;;;;;;;;;;;;;;21.62;53.10;94481.97;5213534;22;19918;-81
2023/07/30 03:33:54;;;;;;;;;;;;;;;21.62;53.00;94485.44;5215288;22;19919;-81
2023/07/30 03:35:55;;;;;;;;;;;;;;;21.62;53.18;94484.63;5215475;22;19938;-82
2023/07/30 03:37:57;;;;;;;;;;;;;;;21.61;53.29;94485.66;5215388;22;19949;-82
2023/07/30 03:39:58;;;;;;;;;;;;;;;21.61;53.31;94491.00;5213596;22;20361;-83
2023/07/30 03:42:00;;;;;;;;;;;;;;;21.62;53.29;94492.63;5187461;22;20406;-82
2023/07/30 03:44:02;;;;;;;;;;;;;;;21.61;53.84;94489.13;5187723;22;19919;-82
2023/07/30 03:46:04;;;;;;;;;;;;;;;21.57;53.85;94479.19;5185874;22;20311;-80
2023/07/30 03:48:08;;;;;;;;;;;;;;;21.54;53.99;94491.13;5212745;22;20033;-81
2023/07/30 03:50:10;;;;;;;;;;;;;;;21.52;54.05;94487.88;5214783;22;19966;-81
2023/07/30 03:52:11;;;;;;;;;;;;;;;21.53;54.17;94489.50;5164553;23;19927;-84
2023/07/30 03:54:15;;;;;;;;;;;;;;;21.55;54.52;94494.59;5217744;22;20175;-81
2023/07/30 03:56:17;;;;;;;;;;;;;;;21.58;54.37;94504.81;5218184;22;19918;-82
2023/07/30 03:58:18;;;;;;;;;;;;;;;21.62;54.45;94498.78;5191584;22;19978;-82
2023/07/30 04:00:20;;;;;;;;;;;;;;;21.59;54.57;94504.56;5189466;22;19925;-82
2023/07/30 04:02:22;;;;;;;;;;;;;;;21.57;54.87;94501.31;5217291;22;19981;-83
2023/07/30 04:04:24;;;;;;;;;;;;;;;21.57;54.87;94508.50;5164228;23;19962;-83
2023/07/30 04:06:25;;;;;;;;;;;;;;;21.58;54.76;94505.59;5218629;22;19919;-83
2023/07/30 04:08:28;;;;;;;;;;;;;;;21.59;54.84;94503.75;5220359;22;19986;-85
2023/07/30 04:10:30;;;;;;;;;;;;;;;21.62;54.91;94504.09;5191039;22;19986;-83
2023/07/30 04:12:31;;;;;;;;;;;;;;;21.59;54.94;94501.88;5218767;22;19944;-82
2023/07/30 04:14:33;;;;;;;;;;;;;;;21.56;55.30;94506.88;5189751;22;19919;-82
2023/07/30 04:16:35;;;;;;;;;;;;;;;21.58;55.06;94502.13;5218583;22;19977;-81
2023/07/30 04:18:37;;;;;;;;;;;;;;;21.64;54.63;94502.03;5192685;22;19961;-82
2023/07/30 04:20:38;;;;;;;;;;;;;;;21.73;54.81;94507.81;5220685;22;19993;-82
2023/07/30 04:22:41;;;;;;;;;;;;;;;21.74;54.79;94505.94;5191212;22;20250;-84
2023/07/30 04:24:43;;;;;;;;;;;;;;;21.76;54.64;94504.66;5190300;22;20228;-82
2023/07/30 04:26:45;;;;;;;;;;;;;;;21.82;54.38;94510.94;5219528;22;19915;-82
2023/07/30 04:28:47;;;;;;;;;;;;;;;21.86;53.97;94512.88;5225843;22;19929;-80
2023/07/30 04:30:49;;;;;;;;;;;;;;;21.80;54.36;94515.69;5193992;22;19919;-84
2023/07/30 04:32:51;;;;;;;;;;;;;;;21.77;54.41;94516.13;5197244;22;19919;-82
2023/07/30 04:34:52;;;;;;;;;;;;;;;21.76;54.38;94509.19;5231540;22;19915;-83
2023/07/30 04:36:55;;;;;;;;;;;;;;;21.80;54.46;94510.34;5203826;22;19915;-82
2023/07/30 04:38:57;;;;;;;;;;;;;;;21.85;54.00;94507.78;5228096;22;19933;-82
2023/07/30 04:40:58;;;;;;;;;;;;;;;21.92;54.51;94515.66;5217910;22;19932;-81
2023/07/30 04:43:00;;;;;;;;;;;;;;;22.00;53.77;94516.09;5217498;22;20272;-81
2023/07/30 04:45:02;;;;;;;;;;;;;;;21.93;54.18;94523.44;5188671;22;19949;-83
2023/07/30 04:47:04;;;;;;;;;;;;;;;21.86;54.48;94512.09;5215365;22;19958;-82
2023/07/30 04:49:05;;;;;;;;;;;;;;;21.90;54.22;94518.56;5188999;22;20366;-84
2023/07/30 04:51:07;;;;;;;;;;;;;;;21.98;54.15;94520.06;5192973;22;19923;-84
2023/07/30 04:53:09;;;;;;;;;;;;;;;22.08;53.47;94521.09;5192897;22;19919;-83
2023/07/30 04:55:11;;;;;;;;;;;;;;;22.22;52.97;94520.81;5218241;22;19945;-84
2023/07/30 04:57:12;;;;;;;;;;;;;;;22.33;52.50;94519.19;5216521;22;19926;-84
2023/07/30 04:59:14;;;;;;;;;;;;;;;22.41;52.58;94516.16;5215921;22;19994;-84
2023/07/30 05:01:16;;;;;;;;;;;;;;;22.48;52.24;94520.31;5215359;22;19948;-81
2023/07/30 05:03:18;;;;;;;;;;;;;;;22.58;51.93;94508.22;5216084;22;19922;-84
2023/07/30 05:05:20;;;;;;;;;;;;;;;22.60;52.35;94517.59;5217029;22;20298;-82
2023/07/30 05:07:22;;;;;;;;;;;;;;;22.62;52.02;94515.50;5217796;22;19915;-84
2023/07/30 05:09:24;;;;;;;;;;;;;;;22.43;52.33;94520.22;5165144;22;20343;-83
2023/07/30 05:11:25;;;;;;;;;;;;;;;22.14;53.04;94511.34;5219592;22;19922;-83
2023/07/30 05:13:27;;;;;;;;;;;;;;;22.19;53.17;94518.63;5171935;22;20290;-82
2023/07/30 05:15:29;;;;;;;;;;;;;;;22.20;52.76;94514.91;5221537;22;19965;-82
2023/07/30 05:17:31;;;;;;;;;;;;;;;22.37;52.73;94513.19;5223461;22;20004;-84
2023/07/30 05:19:33;;;;;;;;;;;;;;;22.49;52.17;94513.94;5208178;22;20035;-84
2023/07/30 05:21:35;;;;;;;;;;;;;;;22.62;52.02;94517.38;5236444;22;19919;-84
2023/07/30 05:23:37;;;;;;;;;;;;;;;22.73;51.56;94513.84;5211573;22;19915;-81
2023/07/30 05:25:39;;;;;;;;;;;;;;;22.80;51.84;94509.19;5238396;22;19915;-80
2023/07/30 05:27:42;;;;;;;;;;;;;;;22.90;51.38;94514.69;5238790;22;19903;-80
2023/07/30 05:29:44;;;;;;;;;;;;;;;22.96;51.18;94507.56;5211183;22;19903;-81
2023/07/30 05:31:49;;;;;;;;;;;;;;;22.93;51.25;94509.91;5212472;22;19939;-84
2023/07/30 05:33:51;;;;;;;;;;;;;;;22.84;51.42;94509.50;5238312;22;19903;-81
2023/07/30 05:35:54;;;;;;;;;;;;;;;22.69;52.11;94510.84;5236975;22;19915;-80
2023/07/30 05:37:55;;;;;;;;;;;;;;;22.60;51.97;94520.28;5237114;22;19951;-82
2023/07/30 05:39:57;;;;;;;;;;;;;;;22.64;52.20;94517.94;5235906;22;20070;-85
2023/07/30 05:41:59;;;;;;;;;;;;;;;22.75;51.81;94524.28;5235853;22;19922;-83
2023/07/30 05:44:00;;;;;;;;;;;;;;;22.70;51.82;94525.00;5207798;22;19973;-81
2023/07/30 05:46:02;;;;;;;;;;;;;;;22.56;51.95;94521.00;5229577;22;19945;-81
2023/07/30 05:48:04;;;;;;;;;;;;;;;22.51;52.11;94520.91;5217749;22;19992;-82
2023/07/30 05:50:08;;;;;;;;;;;;;;;22.54;52.32;94523.09;5194882;22;20013;-82
2023/07/30 05:52:10;;;;;;;;;;;;;;;22.70;52.40;94525.00;5194394;22;19942;-81
2023/07/30 05:54:12;;;;;;;;;;;;;;;22.85;51.73;94529.81;5193632;22;19945;-84
2023/07/30 05:56:18;;;;;;;;;;;;;;;22.88;51.31;94524.78;5164814;22;19947;-84
2023/07/30 05:58:19;;;;;;;;;;;;;;;22.97;51.18;94533.22;5190618;22;19949;-82
2023/07/30 06:00:21;;;;;;;;;;;;;;;23.04;50.97;94523.25;5189830;22;20037;-81
2023/07/30 06:02:23;;;;;;;;;;;;;;;22.98;51.18;94523.38;5191767;22;20066;-84
2023/07/30 06:04:24;;;;;;;;;;;;;;;23.09;50.59;94527.88;5213245;22;19918;-84
2023/07/30 06:06:28;;;;;;;;;;;;;;;23.12;50.11;94524.69;5218153;22;20282;-85
2023/07/30 06:08:30;;;;;;;;;;;;;;;23.15;50.33;94529.56;5218537;22;19919;-84
2023/07/30 06:10:33;;;;;;;;;;;;;;;23.03;50.36;94531.50;5189589;22;20066;-83
2023/07/30 06:12:36;;;;;;;;;;;;;;;23.05;50.17;94532.88;5189337;22;19919;-83
2023/07/30 06:14:38;;;;;;;;;;;;;;;23.13;50.27;94531.69;5188502;22;19923;-83
2023/07/30 06:16:40;;;;;;;;;;;;;;;23.14;49.86;94527.13;5215752;22;20339;-84
2023/07/30 06:18:42;;;;;;;;;;;;;;;23.04;50.05;94525.13;5217001;22;19934;-84
2023/07/30 06:20:44;;;;;;;;;;;;;;;23.22;49.51;94530.22;5217280;22;20035;-82
2023/07/30 06:22:45;;;;;;;;;;;;;;;23.44;48.70;94524.16;5215979;22;19997;-84
2023/07/30 06:24:47;;;;;;;;;;;;;;;23.57;48.46;94523.81;5217037;22;20277;-83
2023/07/30 06:26:49;;;;;;;;;;;;;;;23.59;48.85;94521.72;5218018;22;19972;-81
2023/07/30 06:28:50;;;;;;;;;;;;;;;23.62;47.96;94526.59;5217416;22;19921;-81
2023/07/30 06:30:52;;;;;;;;;;;;;;;23.82;48.32;94525.28;5189903;22;19915;-81
2023/07/30 06:32:54;;;;;;;;;;;;;;;24.00;47.04;94522.31;5189520;22;19923;-81
2023/07/30 06:34:56;;;;;;;;;;;;;;;24.14;46.71;94525.47;5216220;22;19915;-83
2023/07/30 06:36:57;;;;;;;;;;;;;;;24.23;46.92;94513.25;5217975;22;19914;-83
2023/07/30 06:38:59;;;;;;;;;;;;;;;24.29;46.89;94511.47;5217280;22;19919;-81
2023/07/30 06:41:01;;;;;;;;;;;;;;;24.14;46.58;94508.59;5166347;22;19934;-84
2023/07/30 06:43:02;;;;;;;;;;;;;;;24.16;46.56;94511.84;5221815;22;19938;-82
2023/07/30 06:45:04;;;;;;;;;;;;;;;24.27;46.45;94506.34;5197866;22;20056;-82
2023/07/30 06:47:06;;;;;;;;;;;;;;;24.47;46.51;94497.75;5215290;22;19984;-82
2023/07/30 06:49:08;;;;;;;;;;;;;;;24.67;46.14;94494.53;5216644;22;19937;-83
2023/07/30 06:51:10;;;;;;;;;;;;;;;24.82;45.68;94498.41;5216075;22;19941;-84
2023/07/30 06:53:14;;;;;;;;;;;;;;;24.98;44.44;94494.03;5190549;22;19937;-84
2023/07/30 06:55:18;;;;;;;;;;;;;;;24.99;44.90;94493.75;5189604;22;19918;-84
2023/07/30 06:57:20;;;;;;;;;;;;;;;25.00;44.89;94498.06;5216079;22;19927;-83
2023/07/30 06:59:22;;;;;;;;;;;;;;;24.97;44.96;94493.19;5216479;22;19915;-82
2023/07/30 07:01:23;;;;;;;;;;;;;;;24.94;45.19;94491.84;5216548;22;19946;-83
2023/07/30 07:03:26;;;;;;;;;;;;;;;25.08;45.18;94494.09;5216483;22;19977;-83
2023/07/30 07:05:27;;;;;;;;;;;;;;;25.14;45.33;94487.72;5189009;22;19915;-85
2023/07/30 07:07:30;;;;;;;;;;;;;;;25.30;45.36;94486.81;5190821;22;19974;-83
2023/07/30 07:09:32;;;;;;;;;;;;;;;25.40;44.53;94482.59;5216620;22;19918;-85
2023/07/30 07:11:33;;;;;;;;;;;;;;;25.47;44.42;94481.31;5216986;22;19988;-86
2023/07/30 07:13:36;;;;;;;;;;;;;;;25.64;44.27;94474.97;5217258;22;19919;-83
2023/07/30 07:15:39;;;;;;;;;;;;;;;25.79;43.43;94477.78;5217546;22;20440;-81
2023/07/30 07:17:41;;;;;;;;;;;;;;;25.90;43.57;94479.47;5190026;22;19963;-80
2023/07/30 07:19:43;;;;;;;;;;;;;;;26.00;43.00;94473.34;5188097;22;19922;-82
2023/07/30 07:21:45;;;;;;;;;;;;;;;26.07;42.47;94473.09;5215485;22;19918;-81
2023/07/30 07:23:47;;;;;;;;;;;;;;;26.14;42.48;94477.16;5215939;22;20260;-82
2023/07/30 07:25:49;;;;;;;;;;;;;;;26.26;42.10;94470.75;5218542;22;19953;-82
2023/07/30 07:27:51;;;;;;;;;;;;;;;26.31;41.91;94473.50;5219162;22;20345;-85
2023/07/30 07:29:52;;;;;;;;;;;;;;;26.33;41.99;94472.16;5165778;23;19962;-86
2023/07/30 07:31:54;;;;;;;;;;;;;;;26.30;41.37;94471.84;5191558;22;19967;-84
2023/07/30 07:33:56;;;;;;;;;;;;;;;26.36;41.48;94465.44;5193065;22;19998;-82
2023/07/30 07:36:06;;;;;;;;;;;;;;;26.45;41.90;94458.47;5217717;22;20286;-81
2023/07/30 07:38:09;;;;;;;;;;;;;;;26.41;42.16;94462.75;5219803;22;19941;-83
2023/07/30 07:40:11;;;;;;;;;;;;;;;26.41;42.53;94457.38;5165068;22;20034;-83
2023/07/30 07:42:12;;;;;;;;;;;;;;;26.36;42.80;94468.13;5190118;22;19950;-83
2023/07/30 07:44:14;;;;;;;;;;;;;;;26.47;42.76;94456.34;5165388;23;20022;-83
2023/07/30 07:46:16;;;;;;;;;;;;;;;26.63;42.50;94457.22;5190424;22;19957;-84
2023/07/30 07:48:18;;;;;;;;;;;;;;;26.76;42.33;94453.22;5189724;22;19926;-85
2023/07/30 07:50:20;;;;;;;;;;;;;;;26.80;42.53;94454.28;5219064;22;20246;-84
2023/07/30 07:52:21;;;;;;;;;;;;;;;26.52;41.25;94451.00;5190382;22;19919;-84
2023/07/30 07:54:23;;;;;;;;;;;;;;;26.48;41.51;94447.22;5191266;22;19952;-83
2023/07/30 07:56:25;;;;;;;;;;;;;;;26.36;42.18;94457.38;5190035;22;20022;-82
2023/07/30 07:58:28;;;;;;;;;;;;;;;26.53;41.92;94452.59;5192965;22;20013;-83
2023/07/30 08:00:30;;;;;;;;;;;;;;;26.46;41.47;94453.94;5221930;22;19966;-85
2023/07/30 08:02:31;;;;;;;;;;;;;;;26.43;41.40;94444.50;5220810;22;19945;-82
2023/07/30 08:04:33;;;;;;;;;;;;;;;26.34;41.84;94449.59;5195387;22;20044;-82
2023/07/30 08:06:35;;;;;;;;;;;;;;;26.45;42.06;94441.56;5199296;22;19915;-84
2023/07/30 08:08:36;;;;;;;;;;;;;;;26.74;41.56;94447.31;5219266;22;19914;-84
2023/07/30 08:10:39;;;;;;;;;;;;;;;27.01;41.10;94446.25;5218113;22;19998;-84
2023/07/30 08:12:42;;;;;;;;;;;;;;;27.18;39.71;94438.72;5217827;22;20310;-83
2023/07/30 08:14:44;;;;;;;;;;;;;;;27.22;39.34;94434.44;5217932;22;19923;-81
2023/07/30 08:16:46;;;;;;;;;;;;;;;27.01;39.78;94440.88;5218833;22;19915;-82
2023/07/30 08:18:47;;;;;;;;;;;;;;;27.02;39.71;94429.03;5218781;22;19915;-83
2023/07/30 08:20:49;;;;;;;;;;;;;;;27.09;39.51;94433.09;5218671;22;19915;-85
2023/07/30 08:22:51;;;;;;;;;;;;;;;27.25;38.89;94431.22;5195114;22;19923;-83
2023/07/30 08:24:53;;;;;;;;;;;;;;;27.44;39.16;94436.06;5224694;22;19926;-82
2023/07/30 08:26:54;;;;;;;;;;;;;;;27.54;38.93;94434.16;5191882;22;19938;-83
2023/07/30 08:28:57;;;;;;;;;;;;;;;27.13;38.62;94426.09;5191154;22;20314;-84
2023/07/30 08:30:59;;;;;;;;;;;;;;;27.13;39.17;94436.03;5190404;22;19915;-84
2023/07/30 08:33:01;;;;;;;;;;;;;;;27.14;38.75;94422.31;5191665;22;19919;-82
2023/07/30 08:35:04;;;;;;;;;;;;;;;27.33;39.20;94425.28;5191945;22;19915;-83
2023/07/30 08:37:05;;;;;;;;;;;;;;;27.59;39.10;94419.88;5190720;22;19922;-83
2023/07/30 08:39:08;;;;;;;;;;;;;;;27.80;38.58;94422.53;5189866;22;19966;-85
2023/07/30 08:41:09;;;;;;;;;;;;;;;27.93;37.89;94411.22;5190150;22;20500;-85
2023/07/30 08:43:11;;;;;;;;;;;;;;;27.78;38.00;94412.81;5189622;22;19923;-82
2023/07/30 08:45:12;;;;;;;;;;;;;;;27.82;37.45;94409.59;5215843;22;19922;-83
2023/07/30 08:47:14;;;;;;;;;;;;;;;28.03;37.54;94413.88;5216988;22;19978;-82
2023/07/30 08:49:16;;;;;;;;;;;;;;;28.23;37.08;94407.56;5191288;22;19978;-83
2023/07/30 08:51:18;;;;;;;;;;;;;;;28.34;36.40;94414.53;5190561;22;19985;-83
2023/07/30 08:53:19;;;;;;;;;;;;;;;28.51;36.44;94413.41;5191542;22;20345;-83
2023/07/30 08:55:21;;;;;;;;;;;;;;;28.66;36.74;94412.50;5220268;22;20184;-85
2023/07/30 08:57:23;;;;;;;;;;;;;;;28.72;35.86;94406.00;5194995;22;19959;-85
2023/07/30 08:59:24;;;;;;;;;;;;;;;28.73;35.41;94400.31;5200811;22;19915;-82
2023/07/30 09:01:32;;;;;;;;;;;;;;;28.73;35.76;94405.69;5189484;22;19926;-84
2023/07/30 09:03:35;;;;;;;;;;;;;;;28.65;35.44;94394.69;5217603;22;19929;-86
2023/07/30 09:05:36;;;;;;;;;;;;;;;28.79;35.96;94398.38;5218319;22;20342;-83
2023/07/30 09:07:38;;;;;;;;;;;;;;;28.96;35.28;94401.50;5190487;22;20001;-85
2023/07/30 09:09:40;;;;;;;;;;;;;;;28.99;34.58;94397.41;5166004;22;19923;-84
2023/07/30 09:11:43;;;;;;;;;;;;;;;29.11;33.73;94397.09;5191219;22;19930;-84
2023/07/30 09:13:44;;;;;;;;;;;;;;;29.10;34.04;94396.28;5217443;22;19915;-81
2023/07/30 09:15:47;;;;;;;;;;;;;;;29.02;33.24;94393.34;5216944;22;19922;-82
2023/07/30 09:17:54;;;;;;;;;;;;;;;29.10;33.21;94400.88;5217951;22;20001;-86
2023/07/30 09:19:58;;;;;;;;;;;;;;;29.12;32.89;94391.41;5217588;22;19988;-85
2023/07/30 09:22:03;;;;;;;;;;;;;;;29.26;31.99;94394.25;5190403;22;19977;-87
2023/07/30 09:24:05;;;;;;;;;;;;;;;29.32;31.66;94393.13;5189178;22;20347;-86
2023/07/30 09:26:07;;;;;;;;;;;;;;;29.37;31.16;94390.38;5191407;22;20418;-84
2023/07/30 09:28:10;;;;;;;;;;;;;;;29.53;31.62;94382.91;5191775;22;20465;-82
2023/07/30 09:30:12;;;;;;;;;;;;;;;29.60;31.70;94383.41;5191752;22;20274;-83
2023/07/30 09:32:14;;;;;;;;;;;;;;;29.60;31.74;94383.41;5218580;22;19919;-83
2023/07/30 09:34:17;;;;;;;;;;;;;;;29.73;31.93;94381.94;5219217;22;19922;-85
2023/07/30 09:36:19;;;;;;;;;;;;;;;29.78;31.39;94379.19;5221263;22;19930;-83
2023/07/30 09:38:20;;;;;;;;;;;;;;;29.91;32.21;94374.19;5226407;22;19925;-83
2023/07/30 09:40:30;;;;;;;;;;;;;;;30.04;32.08;94367.28;5226546;22;19926;-83
2023/07/30 09:42:33;;;;;;;;;;;;;;;30.24;32.08;94374.31;5201897;22;19941;-83
2023/07/30 09:44:37;;;;;;;;;;;;;;;30.24;31.48;94366.19;5172092;22;19919;-83
2023/07/30 09:46:43;;;;;;;;;;;;;;;30.24;31.38;94360.78;5217392;22;19918;-83
2023/07/30 09:48:45;;;;;;;;;;;;;;;30.16;31.43;94363.06;5191362;22;19916;-84
2023/07/30 09:50:47;;;;;;;;;;;;;;;30.02;30.74;94368.34;5191306;22;19994;-84
2023/07/30 09:52:49;;;;;;;;;;;;;;;30.12;31.02;94366.63;5191847;22;20378;-85
2023/07/30 09:54:51;;;;;;;;;;;;;;;30.08;30.34;94361.00;5195197;22;19915;-84
2023/07/30 09:56:53;;;;;;;;;;;;;;;30.17;30.73;94353.84;5194295;22;19915;-86
2023/07/30 09:58:55;;;;;;;;;;;;;;;30.33;30.96;94359.06;5194917;22;19915;-87
2023/07/30 10:00:59;;;;;;;;;;;;;;;30.31;30.27;94356.69;5221945;22;19926;-81
2023/07/30 10:03:01;;;;;;;;;;;;;;;29.87;30.28;94362.34;5222972;22;19961;-85
2023/07/30 10:05:10;;;;;;;;;;;;;;;29.78;30.34;94354.88;5197586;22;19945;-84
2023/07/30 10:07:15;;;;;;;;;;;;;;;30.03;30.24;94350.28;5199782;22;19937;-85
2023/07/30 10:09:17;;;;;;;;;;;;;;;30.27;30.24;94347.50;5195286;22;19922;-85
2023/07/30 10:11:20;;;;;;;;;;;;;;;30.44;30.26;94338.09;5196356;22;19923;-83
2023/07/30 10:13:23;;;;;;;;;;;;;;;30.51;30.63;94335.84;5225771;22;19938;-84
2023/07/30 10:15:25;;;;;;;;;;;;;;;30.50;29.64;94332.34;5190987;22;19915;-84
2023/07/30 10:17:28;;;;;;;;;;;;;;;30.23;30.05;94332.97;5219928;22;20010;-85
2023/07/30 10:19:31;;;;;;;;;;;;;;;30.36;29.89;94328.78;5217407;22;19915;-85
2023/07/30 10:21:33;;;;;;;;;;;;;;;30.44;29.86;94324.59;5193050;22;19916;-84
2023/07/30 10:23:37;;;;;;;;;;;;;;;30.29;30.25;94333.75;5219799;22;20372;-85
2023/07/30 10:25:52;;;;;;;;;;;;;;;30.08;30.22;94328.59;5192098;22;19919;-84
2023/07/30 10:27:54;;;;;;;;;;;;;;;30.11;30.34;94327.19;5195082;22;19940;-83
2023/07/30 10:30:12;;;;;;;;;;;;;;;29.97;30.55;94321.72;5217344;22;19960;-83
2023/07/30 10:32:14;;;;;;;;;;;;;;;30.23;30.56;94315.97;5189996;22;19919;-86
2023/07/30 10:34:15;;;;;;;;;;;;;;;30.26;30.07;94321.56;5222554;22;20298;-84
2023/07/30 10:36:18;;;;;;;;;;;;;;;30.44;30.31;94308.38;5217040;22;20218;-85